Time;durP1;ratioP1;P1;durP2;ratioP2;P2;SDS_P1;SDS_P2;PMS_P1;PMS_P2;Temp;Humidity;BMP_temperature;BMP_pressure;BME280_temperature;BME280_humidity;BME280_pressure;Samples;Min_cycle;Max_cycle;Signal;HPM_P1;HPM_P2
2021/12/18 00:01:50;;;;;;;17.20;11.53;;;;;;;;;;5024663;28;20552;-47
2021/12/18 00:04:17;;;;;;;18.90;12.37;;;;;;;;;;5011197;28;20251;-48
2021/12/18 00:06:43;;;;;;;19.73;11.33;;;;;;;;;;5031632;28;20446;-48
2021/12/18 00:09:09;;;;;;;16.13;10.97;;;;;;;;;;5040226;28;20442;-49
2021/12/18 00:11:35;;;;;;;19.13;11.73;;;;;;;;;;5032840;28;20508;-51
2021/12/18 00:14:17;;;;;;;18.53;13.43;;;;;;;;;;5041520;28;20854;-51
2021/12/18 00:16:45;;;;;;;21.97;13.93;;;;;;;;;;5034408;28;20454;-49
2021/12/18 00:19:11;;;;;;;20.50;11.83;;;;;;;;;;5043067;28;20893;-49
2021/12/18 00:21:37;;;;;;;17.23;11.27;;;;;;;;;;5025042;28;20842;-48
2021/12/18 00:24:06;;;;;;;21.40;13.30;;;;;;;;;;5039303;28;20549;-49
2021/12/18 00:26:32;;;;;;;24.47;13.03;;;;;;;;;;5045012;28;20813;-51
2021/12/18 00:29:11;;;;;;;19.17;12.73;;;;;;;;;;5029604;28;20592;-49
2021/12/18 00:31:41;;;;;;;17.37;12.30;;;;;;;;;;5039765;28;20446;-48
2021/12/18 00:34:07;;;;;;;17.83;12.50;;;;;;;;;;5018071;28;20493;-48
2021/12/18 00:36:33;;;;;;;18.67;12.73;;;;;;;;;;5045049;28;20438;-50
2021/12/18 00:39:00;;;;;;;24.60;12.47;;;;;;;;;;5000799;28;20500;-49
2021/12/18 00:44:02;;;;;;;19.47;12.97;;;;;;;;;;5030671;28;21224;-50
2021/12/18 00:46:28;;;;;;;19.70;11.93;;;;;;;;;;5035190;28;20455;-49
2021/12/18 00:48:54;;;;;;;21.90;13.60;;;;;;;;;;5022559;28;20450;-48
2021/12/18 00:51:21;;;;;;;20.83;15.37;;;;;;;;;;5003672;28;20540;-50
2021/12/18 00:53:47;;;;;;;19.83;12.73;;;;;;;;;;5040539;28;20477;-50
2021/12/18 00:56:13;;;;;;;19.43;13.37;;;;;;;;;;5021566;28;20587;-48
2021/12/18 00:58:39;;;;;;;21.80;14.23;;;;;;;;;;5038932;28;20509;-49
2021/12/18 01:01:08;;;;;;;17.00;11.10;;;;;;;;;;5015411;28;20590;-48
2021/12/18 01:03:35;;;;;;;19.83;12.37;;;;;;;;;;5037145;28;20553;-48
2021/12/18 01:06:01;;;;;;;19.50;13.23;;;;;;;;;;5020768;28;20923;-48
2021/12/18 01:08:27;;;;;;;18.43;12.43;;;;;;;;;;5032061;28;20500;-50
2021/12/18 01:13:25;;;;;;;20.57;13.50;;;;;;;;;;5035905;28;20478;-48
2021/12/18 01:15:54;;;;;;;18.80;12.77;;;;;;;;;;5021542;28;20850;-48
2021/12/18 01:24:03;;;;;;;19.60;12.60;;;;;;;;;;5042002;28;20424;-50
2021/12/18 01:26:29;;;;;;;20.73;12.30;;;;;;;;;;5012224;28;20459;-48
2021/12/18 01:28:55;;;;;;;19.23;13.07;;;;;;;;;;5037154;28;20450;-50
2021/12/18 01:31:21;;;;;;;22.27;13.63;;;;;;;;;;4994977;28;20543;-49
2021/12/18 01:33:50;;;;;;;22.87;14.37;;;;;;;;;;5042101;28;20579;-50
2021/12/18 01:36:16;;;;;;;20.57;11.93;;;;;;;;;;5017699;28;20442;-48
2021/12/18 01:38:42;;;;;;;21.77;13.23;;;;;;;;;;5042621;28;20446;-47
2021/12/18 01:41:08;;;;;;;20.57;14.07;;;;;;;;;;5017562;28;20446;-48
2021/12/18 01:54:09;;;;;;;17.40;12.43;;;;;;;;;;5032369;28;21041;-49
2021/12/18 01:56:35;;;;;;;19.43;13.20;;;;;;;;;;5034426;28;20432;-48
2021/12/18 01:59:01;;;;;;;20.47;12.47;;;;;;;;;;5042516;28;20426;-49
2021/12/18 02:01:28;;;;;;;19.10;12.67;;;;;;;;;;5031753;28;20434;-48
2021/12/18 02:03:54;;;;;;;17.17;11.50;;;;;;;;;;5039758;28;20530;-49
2021/12/18 02:06:22;;;;;;;16.13;11.50;;;;;;;;;;5017061;28;20446;-49
2021/12/18 02:08:49;;;;;;;18.13;12.63;;;;;;;;;;5009404;28;20438;-48
2021/12/18 02:21:51;;;;;;;16.73;11.77;;;;;;;;;;5036566;28;20461;-49
2021/12/18 02:24:19;;;;;;;21.03;11.83;;;;;;;;;;5016884;28;20435;-48
2021/12/18 02:26:45;;;;;;;19.50;12.03;;;;;;;;;;5037639;28;20443;-50
2021/12/18 02:29:14;;;;;;;17.53;12.90;;;;;;;;;;5014485;28;20816;-50
2021/12/18 02:31:41;;;;;;;19.70;12.90;;;;;;;;;;5038251;28;20498;-49
2021/12/18 02:34:17;;;;;;;23.33;14.40;;;;;;;;;;5035481;28;20490;-49
2021/12/18 02:36:47;;;;;;;19.33;13.50;;;;;;;;;;5039160;28;20423;-50
2021/12/18 02:39:25;;;;;;;23.57;13.53;;;;;;;;;;5017621;28;20441;-49
2021/12/18 02:42:08;;;;;;;19.43;13.53;;;;;;;;;;5031680;28;20888;-50
2021/12/18 02:44:35;;;;;;;17.73;13.03;;;;;;;;;;5020276;28;20533;-49
2021/12/18 02:47:01;;;;;;;18.70;13.10;;;;;;;;;;5040855;28;20446;-49
2021/12/18 02:49:28;;;;;;;22.37;13.80;;;;;;;;;;4997693;28;20453;-50
2021/12/18 02:51:54;;;;;;;19.37;12.63;;;;;;;;;;5039883;28;20435;-50
2021/12/18 02:54:20;;;;;;;26.50;14.10;;;;;;;;;;5016226;28;20486;-50
2021/12/18 02:56:47;;;;;;;24.20;14.23;;;;;;;;;;5041157;28;20471;-51
2021/12/18 02:59:15;;;;;;;21.70;14.10;;;;;;;;;;5038574;28;20446;-50
2021/12/18 03:01:41;;;;;;;22.70;14.00;;;;;;;;;;5038892;28;20815;-48
2021/12/18 03:04:30;;;;;;;20.77;12.43;;;;;;;;;;5033319;28;21894;-49
2021/12/18 03:07:00;;;;;;;18.67;12.60;;;;;;;;;;5057984;28;20545;-48
2021/12/18 03:09:53;;;;;;;19.50;13.50;;;;;;;;;;5010655;28;20532;-48
2021/12/18 03:26:03;;;;;;;19.90;13.33;;;;;;;;;;5015746;28;20439;-48
2021/12/18 03:28:30;;;;;;;21.97;10.93;;;;;;;;;;5035742;28;20592;-49
2021/12/18 03:30:56;;;;;;;19.80;13.60;;;;;;;;;;5021750;28;20445;-48
2021/12/18 03:33:22;;;;;;;23.40;13.77;;;;;;;;;;5039635;28;20663;-48
2021/12/18 03:35:48;;;;;;;20.23;12.77;;;;;;;;;;5038246;28;20443;-48
2021/12/18 03:38:14;;;;;;;23.50;13.00;;;;;;;;;;5041293;28;20656;-48
2021/12/18 03:40:41;;;;;;;20.80;13.20;;;;;;;;;;5015002;28;20445;-50
2021/12/18 03:43:07;;;;;;;19.43;11.67;;;;;;;;;;5057429;28;20815;-52
2021/12/18 03:45:33;;;;;;;31.90;13.13;;;;;;;;;;5056131;28;20552;-49
2021/12/18 03:48:00;;;;;;;20.87;14.37;;;;;;;;;;5044205;28;20977;-49
2021/12/18 03:50:26;;;;;;;22.93;12.63;;;;;;;;;;5007093;28;20500;-50
2021/12/18 03:52:52;;;;;;;23.90;14.93;;;;;;;;;;5041404;28;20454;-49
2021/12/18 03:55:18;;;;;;;17.87;11.93;;;;;;;;;;5034479;28;20491;-50
2021/12/18 03:57:44;;;;;;;22.50;12.40;;;;;;;;;;5044672;28;20439;-48
2021/12/18 04:00:11;;;;;;;22.30;12.60;;;;;;;;;;5022678;28;20522;-52
2021/12/18 04:02:37;;;;;;;18.87;12.50;;;;;;;;;;5044698;28;20582;-49
2021/12/18 04:05:03;;;;;;;19.27;13.97;;;;;;;;;;5040351;28;21014;-49
2021/12/18 04:07:30;;;;;;;22.57;12.97;;;;;;;;;;5043052;28;20970;-49
2021/12/18 04:09:56;;;;;;;21.20;13.23;;;;;;;;;;5014752;28;20427;-50
2021/12/18 04:12:23;;;;;;;22.60;12.17;;;;;;;;;;5042366;28;20454;-49
2021/12/18 04:14:49;;;;;;;19.47;13.10;;;;;;;;;;5016622;28;20565;-48
2021/12/18 04:17:15;;;;;;;19.63;12.10;;;;;;;;;;5042173;28;20907;-48
2021/12/18 04:19:41;;;;;;;19.60;11.17;;;;;;;;;;5030913;28;20205;-48
2021/12/18 04:22:07;;;;;;;22.87;11.57;;;;;;;;;;5035447;28;20600;-49
2021/12/18 04:24:33;;;;;;;22.70;13.37;;;;;;;;;;5038398;28;20446;-47
2021/12/18 04:27:07;;;;;;;25.53;12.90;;;;;;;;;;5043457;28;20946;-50
2021/12/18 04:29:33;;;;;;;20.07;12.43;;;;;;;;;;5038187;28;20537;-50
2021/12/18 04:32:00;;;;;;;21.43;11.33;;;;;;;;;;5031694;28;20438;-48
2021/12/18 04:34:26;;;;;;;23.93;12.00;;;;;;;;;;5015352;28;20604;-48
2021/12/18 04:36:52;;;;;;;22.00;13.57;;;;;;;;;;5039993;28;20537;-55
2021/12/18 04:39:18;;;;;;;22.90;12.27;;;;;;;;;;5012833;28;20526;-48
2021/12/18 04:41:50;;;;;;;19.93;12.23;;;;;;;;;;5040692;28;20435;-48
2021/12/18 04:44:18;;;;;;;26.20;12.70;;;;;;;;;;5037566;28;20653;-49
2021/12/18 04:46:45;;;;;;;21.20;12.10;;;;;;;;;;5035423;28;20428;-50
2021/12/18 04:49:38;;;;;;;16.87;10.43;;;;;;;;;;4990604;28;20940;-49
2021/12/18 04:52:07;;;;;;;19.17;10.60;;;;;;;;;;5025601;28;20493;-49
2021/12/18 04:54:33;;;;;;;23.47;12.43;;;;;;;;;;5040313;28;20467;-49
2021/12/18 04:56:59;;;;;;;21.00;11.53;;;;;;;;;;5033087;28;20426;-49
2021/12/18 04:59:44;;;;;;;21.40;11.70;;;;;;;;;;5037947;28;20454;-50
2021/12/18 05:02:22;;;;;;;18.97;12.17;;;;;;;;;;5028462;28;20718;-49
2021/12/18 05:04:48;;;;;;;16.67;10.17;;;;;;;;;;5040476;28;20442;-48
2021/12/18 05:07:14;;;;;;;21.80;11.43;;;;;;;;;;5033844;28;20446;-48
2021/12/18 05:09:41;;;;;;;21.90;11.67;;;;;;;;;;5028388;28;20451;-50
2021/12/18 05:12:08;;;;;;;18.20;9.80;;;;;;;;;;5043042;28;20454;-49
2021/12/18 05:14:35;;;;;;;18.17;10.70;;;;;;;;;;5040065;28;20562;-51
2021/12/18 05:17:01;;;;;;;18.13;10.43;;;;;;;;;;5020096;28;20430;-48
2021/12/18 05:20:05;;;;;;;18.57;10.90;;;;;;;;;;5033823;28;20442;-49
2021/12/18 05:22:33;;;;;;;16.80;11.40;;;;;;;;;;5034034;28;20545;-48
2021/12/18 05:24:59;;;;;;;20.87;12.13;;;;;;;;;;5035788;28;20476;-50
2021/12/18 05:27:26;;;;;;;19.80;11.13;;;;;;;;;;5034413;28;21022;-49
2021/12/18 05:29:52;;;;;;;22.20;10.90;;;;;;;;;;5036520;28;20575;-49
2021/12/18 05:32:19;;;;;;;18.63;10.37;;;;;;;;;;5036279;28;20477;-51
2021/12/18 05:34:55;;;;;;;22.00;11.70;;;;;;;;;;5032308;28;21041;-49
2021/12/18 05:37:32;;;;;;;20.87;13.30;;;;;;;;;;5011185;28;20837;-48
2021/12/18 05:39:58;;;;;;;20.63;10.30;;;;;;;;;;5042674;28;20429;-50
2021/12/18 05:42:24;;;;;;;23.60;11.70;;;;;;;;;;5035470;28;20427;-49
2021/12/18 05:44:50;;;;;;;16.00;9.40;;;;;;;;;;5043229;28;20438;-50
2021/12/18 05:47:28;;;;;;;20.53;11.90;;;;;;;;;;5033700;28;20586;-50
2021/12/18 05:49:57;;;;;;;17.83;9.97;;;;;;;;;;5040921;28;20541;-48
2021/12/18 05:52:24;;;;;;;17.57;9.77;;;;;;;;;;4994432;28;20446;-49
2021/12/18 05:54:50;;;;;;;15.63;9.43;;;;;;;;;;5043808;28;20781;-48
2021/12/18 05:57:16;;;;;;;19.93;11.60;;;;;;;;;;5013498;28;20991;-48
2021/12/18 05:59:42;;;;;;;22.43;11.80;;;;;;;;;;5037282;28;20430;-49
2021/12/18 06:02:08;;;;;;;18.93;9.70;;;;;;;;;;5035630;28;20552;-48
2021/12/18 06:04:34;;;;;;;20.93;10.53;;;;;;;;;;5036805;28;20454;-49
2021/12/18 06:07:07;;;;;;;20.77;11.73;;;;;;;;;;5023846;28;20450;-49
2021/12/18 06:09:34;;;;;;;20.70;11.97;;;;;;;;;;5028505;28;20751;-50
2021/12/18 06:12:03;;;;;;;14.83;9.20;;;;;;;;;;5016979;28;21055;-49
2021/12/18 06:14:29;;;;;;;21.17;11.23;;;;;;;;;;5041233;28;20820;-50
2021/12/18 06:16:55;;;;;;;26.70;11.73;;;;;;;;;;5036019;28;20817;-48
2021/12/18 06:19:31;;;;;;;14.53;9.40;;;;;;;;;;5034229;28;20722;-50
2021/12/18 06:22:20;;;;;;;17.87;11.00;;;;;;;;;;5032973;28;20431;-51
2021/12/18 06:24:49;;;;;;;14.80;9.70;;;;;;;;;;5041076;28;20438;-49
2021/12/18 06:27:36;;;;;;;17.10;10.23;;;;;;;;;;5037102;28;21411;-49
2021/12/18 06:30:10;;;;;;;20.87;10.50;;;;;;;;;;5037711;28;20453;-54
2021/12/18 06:32:36;;;;;;;18.10;9.23;;;;;;;;;;5009777;28;20700;-49
2021/12/18 06:35:02;;;;;;;13.33;8.80;;;;;;;;;;5039156;28;20837;-49
2021/12/18 06:37:28;;;;;;;19.03;9.43;;;;;;;;;;5036817;28;20522;-50
2021/12/18 06:39:55;;;;;;;18.50;10.40;;;;;;;;;;5037684;28;20446;-50
2021/12/18 06:42:21;;;;;;;16.90;8.67;;;;;;;;;;5014288;28;20531;-49
2021/12/18 06:44:47;;;;;;;14.53;10.00;;;;;;;;;;5038161;28;20446;-49
2021/12/18 06:47:19;;;;;;;17.10;10.17;;;;;;;;;;5019055;28;20719;-49
2021/12/18 06:49:45;;;;;;;18.60;10.27;;;;;;;;;;5032907;28;20438;-51
2021/12/18 06:52:11;;;;;;;14.80;9.57;;;;;;;;;;5016473;28;20449;-48
2021/12/18 06:54:37;;;;;;;20.30;10.77;;;;;;;;;;5037377;28;20563;-49
2021/12/18 06:57:03;;;;;;;13.23;8.80;;;;;;;;;;5021694;28;20760;-49
2021/12/18 06:59:29;;;;;;;14.80;10.63;;;;;;;;;;5025780;28;20454;-49
2021/12/18 07:01:56;;;;;;;19.20;10.60;;;;;;;;;;5012417;28;20672;-50
2021/12/18 07:04:25;;;;;;;15.33;9.47;;;;;;;;;;5013976;28;20541;-49
2021/12/18 07:06:52;;;;;;;15.00;9.03;;;;;;;;;;5038041;28;20468;-48
2021/12/18 07:09:18;;;;;;;13.20;8.57;;;;;;;;;;5036195;28;21177;-51
2021/12/18 07:11:44;;;;;;;13.80;7.53;;;;;;;;;;5033663;28;20964;-51
2021/12/18 07:14:12;;;;;;;13.67;7.93;;;;;;;;;;5048176;28;20523;-48
2021/12/18 07:16:41;;;;;;;16.23;7.37;;;;;;;;;;5034874;28;20523;-50
2021/12/18 07:19:11;;;;;;;16.00;7.17;;;;;;;;;;5018742;28;20539;-50
2021/12/18 07:21:37;;;;;;;17.93;6.83;;;;;;;;;;5044041;28;20423;-49
2021/12/18 07:24:03;;;;;;;13.00;7.63;;;;;;;;;;5020040;28;20466;-49
2021/12/18 07:26:32;;;;;;;10.60;6.83;;;;;;;;;;5052222;28;20527;-50
2021/12/18 07:28:59;;;;;;;15.50;6.53;;;;;;;;;;5039069;28;20450;-50
2021/12/18 07:31:26;;;;;;;12.73;6.20;;;;;;;;;;5038414;28;20426;-50
2021/12/18 07:33:53;;;;;;;10.77;6.20;;;;;;;;;;4977784;28;20767;-48
2021/12/18 07:36:19;;;;;;;12.70;6.83;;;;;;;;;;5029480;28;20439;-49
2021/12/18 07:38:46;;;;;;;12.93;5.80;;;;;;;;;;5022787;28;23156;-55
2021/12/18 07:41:12;;;;;;;15.27;7.03;;;;;;;;;;5048554;28;20928;-49
2021/12/18 07:43:56;;;;;;;12.30;6.37;;;;;;;;;;5034958;28;20449;-49
2021/12/18 07:46:22;;;;;;;13.07;7.13;;;;;;;;;;5037806;28;21054;-48
2021/12/18 07:49:04;;;;;;;16.17;8.07;;;;;;;;;;5032098;28;20503;-49
2021/12/18 07:51:32;;;;;;;15.53;8.63;;;;;;;;;;5038998;28;20446;-48
2021/12/18 07:53:58;;;;;;;15.10;8.73;;;;;;;;;;5038394;28;20473;-48
2021/12/18 07:56:24;;;;;;;13.57;7.07;;;;;;;;;;5037600;28;20441;-49
2021/12/18 07:59:08;;;;;;;13.80;7.13;;;;;;;;;;5018659;28;20511;-49
2021/12/18 08:01:38;;;;;;;13.87;7.20;;;;;;;;;;5038379;28;20521;-51
2021/12/18 08:04:04;;;;;;;17.00;8.07;;;;;;;;;;4996434;28;20513;-49
2021/12/18 08:06:30;;;;;;;12.30;6.70;;;;;;;;;;5039127;28;20439;-50
2021/12/18 08:08:56;;;;;;;14.90;7.80;;;;;;;;;;5018056;28;21084;-48
2021/12/18 08:11:23;;;;;;;13.50;6.97;;;;;;;;;;5044189;28;20426;-50
2021/12/18 08:13:49;;;;;;;15.83;8.70;;;;;;;;;;5034624;28;21184;-50
2021/12/18 08:16:15;;;;;;;18.27;7.23;;;;;;;;;;5034091;28;20677;-50
2021/12/18 08:18:41;;;;;;;16.00;6.90;;;;;;;;;;5010671;28;20434;-49
2021/12/18 08:21:26;;;;;;;15.50;7.67;;;;;;;;;;5021688;28;20434;-50
2021/12/18 08:23:53;;;;;;;13.13;6.10;;;;;;;;;;5038140;28;20449;-49
2021/12/18 08:26:19;;;;;;;14.97;7.50;;;;;;;;;;5040775;28;20431;-48
2021/12/18 08:28:45;;;;;;;14.33;7.53;;;;;;;;;;5044243;28;20442;-48
2021/12/18 08:31:11;;;;;;;20.60;8.20;;;;;;;;;;5027915;28;20434;-48
2021/12/18 08:33:37;;;;;;;18.20;8.60;;;;;;;;;;5027796;28;20833;-48
2021/12/18 08:36:30;;;;;;;13.27;7.50;;;;;;;;;;5047728;28;21010;-50
2021/12/18 08:39:00;;;;;;;20.23;9.20;;;;;;;;;;5027129;28;21028;-49
2021/12/18 08:41:27;;;;;;;15.37;7.67;;;;;;;;;;5032128;28;20887;-49
2021/12/18 08:43:53;;;;;;;15.10;7.20;;;;;;;;;;5036973;28;20443;-48
2021/12/18 08:46:19;;;;;;;14.93;7.97;;;;;;;;;;5032259;28;20470;-50
2021/12/18 08:48:45;;;;;;;16.60;10.10;;;;;;;;;;5039301;28;20485;-49
2021/12/18 08:51:23;;;;;;;18.50;7.53;;;;;;;;;;5029410;28;20438;-51
2021/12/18 08:53:50;;;;;;;13.53;8.87;;;;;;;;;;5037781;28;20485;-50
2021/12/18 08:56:16;;;;;;;15.70;8.10;;;;;;;;;;5040390;28;20426;-48
2021/12/18 08:58:42;;;;;;;12.90;8.43;;;;;;;;;;5041541;28;20513;-52
2021/12/18 09:01:08;;;;;;;12.67;10.07;;;;;;;;;;5044380;28;20819;-50
2021/12/18 09:03:34;;;;;;;13.67;7.37;;;;;;;;;;5043505;28;20442;-49
2021/12/18 09:06:25;;;;;;;15.83;9.30;;;;;;;;;;5043437;28;20434;-53
2021/12/18 09:08:55;;;;;;;19.57;9.60;;;;;;;;;;5039812;28;20448;-51
2021/12/18 09:11:29;;;;;;;13.40;8.20;;;;;;;;;;5033492;28;20925;-50
2021/12/18 09:13:55;;;;;;;11.43;7.60;;;;;;;;;;5044462;28;20955;-51
2021/12/18 09:16:26;;;;;;;16.97;8.37;;;;;;;;;;5045045;28;20439;-51
2021/12/18 09:18:53;;;;;;;12.40;7.47;;;;;;;;;;5044353;28;20454;-51
2021/12/18 09:21:27;;;;;;;17.67;7.97;;;;;;;;;;5041754;28;20423;-52
2021/12/18 09:23:56;;;;;;;18.67;8.80;;;;;;;;;;4987067;28;20455;-49
2021/12/18 09:26:22;;;;;;;19.90;8.17;;;;;;;;;;5038526;28;21301;-49
2021/12/18 09:29:05;;;;;;;16.00;8.10;;;;;;;;;;5022460;28;20457;-51
2021/12/18 09:31:34;;;;;;;19.70;8.40;;;;;;;;;;5040330;28;20796;-51
2021/12/18 09:34:00;;;;;;;17.33;8.43;;;;;;;;;;5017677;28;20486;-49
2021/12/18 09:36:27;;;;;;;13.50;7.90;;;;;;;;;;5043376;28;20568;-51
2021/12/18 09:38:53;;;;;;;17.60;10.37;;;;;;;;;;4988339;28;20887;-50
2021/12/18 09:41:19;;;;;;;18.40;10.50;;;;;;;;;;5041500;28;20446;-51
2021/12/18 09:43:57;;;;;;;16.07;8.40;;;;;;;;;;5035017;28;20618;-51
2021/12/18 09:46:23;;;;;;;13.97;7.67;;;;;;;;;;5043518;28;20575;-52
2021/12/18 09:48:56;;;;;;;19.50;9.00;;;;;;;;;;5024385;28;20800;-53
2021/12/18 09:51:27;;;;;;;14.83;8.80;;;;;;;;;;5045129;28;21269;-51
2021/12/18 09:53:53;;;;;;;16.33;9.40;;;;;;;;;;5006752;28;20577;-50
2021/12/18 09:56:19;;;;;;;13.17;7.30;;;;;;;;;;5037532;28;22212;-50
2021/12/18 09:58:46;;;;;;;16.87;9.57;;;;;;;;;;5014618;28;20538;-51
2021/12/18 10:01:13;;;;;;;19.50;9.37;;;;;;;;;;5040769;28;20939;-54
2021/12/18 10:03:45;;;;;;;16.43;9.07;;;;;;;;;;5037834;28;21270;-49
2021/12/18 10:06:36;;;;;;;18.37;9.70;;;;;;;;;;5040291;28;20605;-51
2021/12/18 10:09:08;;;;;;;20.13;9.87;;;;;;;;;;5030854;28;20467;-51
2021/12/18 10:11:45;;;;;;;23.30;9.90;;;;;;;;;;5044238;28;20431;-50
2021/12/18 10:14:11;;;;;;;16.07;9.47;;;;;;;;;;4993061;28;20983;-51
2021/12/18 10:16:54;;;;;;;18.30;8.90;;;;;;;;;;5048448;28;20462;-50
2021/12/18 10:19:30;;;;;;;17.87;8.37;;;;;;;;;;5046122;28;20445;-49
2021/12/18 10:21:57;;;;;;;18.97;8.53;;;;;;;;;;5039199;28;20530;-51
2021/12/18 10:24:29;;;;;;;18.87;7.87;;;;;;;;;;5035558;28;20639;-50
2021/12/18 10:26:56;;;;;;;15.47;9.43;;;;;;;;;;5053436;28;20439;-49
2021/12/18 10:29:52;;;;;;;14.47;9.60;;;;;;;;;;5036963;28;20761;-51
2021/12/18 10:32:24;;;;;;;13.87;8.97;;;;;;;;;;5024357;28;20561;-50
2021/12/18 10:34:56;;;;;;;13.63;8.23;;;;;;;;;;5036637;28;20543;-50
2021/12/18 10:37:28;;;;;;;12.20;8.40;;;;;;;;;;5033517;28;21007;-51
2021/12/18 10:40:16;;;;;;;13.40;8.27;;;;;;;;;;5034190;28;20688;-51
2021/12/18 10:42:45;;;;;;;15.63;6.47;;;;;;;;;;5031176;28;20448;-50
2021/12/18 10:45:15;;;;;;;15.50;7.83;;;;;;;;;;5040513;28;20432;-50
2021/12/18 10:47:49;;;;;;;14.60;8.00;;;;;;;;;;5022598;28;20993;-50
2021/12/18 10:50:18;;;;;;;13.03;7.23;;;;;;;;;;5048178;28;20460;-50
2021/12/18 10:52:44;;;;;;;13.40;7.77;;;;;;;;;;5017998;28;20452;-51
2021/12/18 10:55:11;;;;;;;16.43;7.70;;;;;;;;;;5042920;28;20568;-51
2021/12/18 10:57:37;;;;;;;12.00;7.07;;;;;;;;;;5037613;28;20561;-50
2021/12/18 11:00:03;;;;;;;11.50;7.47;;;;;;;;;;5042517;28;20457;-51
2021/12/18 11:02:29;;;;;;;16.70;8.77;;;;;;;;;;5018269;28;20434;-50
2021/12/18 11:05:12;;;;;;;16.00;8.60;;;;;;;;;;5045481;28;20449;-50
2021/12/18 11:07:42;;;;;;;14.80;7.60;;;;;;;;;;5033065;28;20208;-51
2021/12/18 11:16:03;;;;;;;16.80;9.50;;;;;;;;;;5047318;28;20438;-51
2021/12/18 11:18:29;;;;;;;15.63;8.03;;;;;;;;;;5000368;28;20442;-50
2021/12/18 11:20:55;;;;;;;11.90;8.03;;;;;;;;;;5042838;28;20453;-50
2021/12/18 11:23:32;;;;;;;15.73;9.80;;;;;;;;;;5023407;28;20192;-50
2021/12/18 11:25:58;;;;;;;13.60;8.57;;;;;;;;;;5040684;28;20430;-50
2021/12/18 11:28:32;;;;;;;15.70;7.73;;;;;;;;;;5027119;28;21873;-52
2021/12/18 11:30:58;;;;;;;15.40;9.37;;;;;;;;;;5046867;28;20438;-50
2021/12/18 11:33:24;;;;;;;14.07;7.53;;;;;;;;;;5017908;28;21633;-50
2021/12/18 11:35:50;;;;;;;13.40;8.00;;;;;;;;;;5045113;28;20443;-50
2021/12/18 11:38:16;;;;;;;14.77;8.27;;;;;;;;;;5041200;28;20473;-52
2021/12/18 11:40:42;;;;;;;11.70;7.27;;;;;;;;;;5046833;28;20778;-51
2021/12/18 11:43:09;;;;;;;13.03;7.90;;;;;;;;;;5028521;28;20449;-50
2021/12/18 11:45:36;;;;;;;10.33;6.50;;;;;;;;;;5042434;28;20541;-51
2021/12/18 11:48:02;;;;;;;13.57;7.43;;;;;;;;;;5042075;28;20445;-50
2021/12/18 11:50:38;;;;;;;10.37;7.20;;;;;;;;;;5047247;28;20434;-51
2021/12/18 11:53:04;;;;;;;14.77;7.67;;;;;;;;;;5017257;28;21107;-50
2021/12/18 11:55:35;;;;;;;11.73;7.43;;;;;;;;;;5009593;28;20521;-51
2021/12/18 11:58:02;;;;;;;13.13;8.57;;;;;;;;;;5031385;28;20433;-51
2021/12/18 12:00:36;;;;;;;11.20;7.73;;;;;;;;;;5029440;28;20462;-51
2021/12/18 12:03:02;;;;;;;14.87;8.67;;;;;;;;;;5042648;28;20462;-50
2021/12/18 12:05:35;;;;;;;15.30;8.70;;;;;;;;;;5021178;28;20450;-49
2021/12/18 12:08:21;;;;;;;13.13;7.00;;;;;;;;;;5042201;28;20435;-50
2021/12/18 12:11:06;;;;;;;15.23;7.13;;;;;;;;;;5018877;28;20460;-52
2021/12/18 12:14:00;;;;;;;13.67;8.63;;;;;;;;;;5044403;28;20491;-51
2021/12/18 12:16:44;;;;;;;12.37;7.30;;;;;;;;;;5034093;28;20829;-49
2021/12/18 12:19:18;;;;;;;15.03;7.87;;;;;;;;;;5038529;28;20647;-51
2021/12/18 12:21:47;;;;;;;12.20;7.93;;;;;;;;;;5043124;28;20427;-50
2021/12/18 12:24:45;;;;;;;11.07;6.70;;;;;;;;;;5023333;28;20454;-52
2021/12/18 12:27:27;;;;;;;14.47;8.53;;;;;;;;;;5015311;28;20964;-51
2021/12/18 12:29:53;;;;;;;14.97;7.70;;;;;;;;;;5041474;28;20500;-50
2021/12/18 12:32:20;;;;;;;11.47;6.70;;;;;;;;;;5029625;28;20423;-51
2021/12/18 12:35:08;;;;;;;12.30;6.80;;;;;;;;;;5046398;28;20861;-50
2021/12/18 12:37:41;;;;;;;10.90;6.50;;;;;;;;;;5029938;28;20453;-50
2021/12/18 12:40:38;;;;;;;14.23;8.97;;;;;;;;;;5044487;28;20516;-51
2021/12/18 12:43:30;;;;;;;12.13;7.50;;;;;;;;;;5035198;28;21019;-51
2021/12/18 12:45:59;;;;;;;14.97;7.60;;;;;;;;;;5013232;28;21113;-50
2021/12/18 12:48:26;;;;;;;13.33;7.63;;;;;;;;;;5040833;28;20449;-49
2021/12/18 12:50:55;;;;;;;10.53;6.97;;;;;;;;;;5037497;28;20794;-49
2021/12/18 12:53:23;;;;;;;11.20;7.33;;;;;;;;;;5043350;28;20462;-51
2021/12/18 12:56:03;;;;;;;11.50;7.77;;;;;;;;;;5013136;28;20466;-51
2021/12/18 12:58:29;;;;;;;12.40;7.83;;;;;;;;;;5052775;28;20477;-50
2021/12/18 13:00:58;;;;;;;15.37;7.90;;;;;;;;;;5039104;28;20431;-51
2021/12/18 13:03:25;;;;;;;10.80;7.70;;;;;;;;;;5036522;28;20526;-50
2021/12/18 13:05:52;;;;;;;15.77;6.63;;;;;;;;;;5019493;28;20890;-50
2021/12/18 13:08:18;;;;;;;12.93;7.57;;;;;;;;;;5040701;28;20447;-50
2021/12/18 13:10:52;;;;;;;13.30;9.30;;;;;;;;;;5027092;28;20531;-51
2021/12/18 13:13:19;;;;;;;10.53;7.50;;;;;;;;;;5041850;28;20469;-50
2021/12/18 13:15:57;;;;;;;13.00;8.97;;;;;;;;;;5020187;28;20902;-49
2021/12/18 13:18:26;;;;;;;10.23;6.47;;;;;;;;;;5041003;28;20435;-50
2021/12/18 13:20:56;;;;;;;10.40;7.47;;;;;;;;;;5040826;28;20768;-50
2021/12/18 13:23:23;;;;;;;12.73;7.33;;;;;;;;;;5040227;28;20492;-51
2021/12/18 13:25:55;;;;;;;13.83;8.50;;;;;;;;;;5002444;28;20928;-50
2021/12/18 13:28:22;;;;;;;13.87;8.13;;;;;;;;;;5039696;28;20447;-50
2021/12/18 13:30:50;;;;;;;9.77;7.07;;;;;;;;;;5011782;28;21487;-49
2021/12/18 13:33:16;;;;;;;10.70;6.20;;;;;;;;;;5008233;28;20925;-50
2021/12/18 13:35:43;;;;;;;13.20;7.20;;;;;;;;;;5011684;28;20453;-51
2021/12/18 13:38:10;;;;;;;14.33;8.47;;;;;;;;;;5042117;28;20444;-49
2021/12/18 13:40:58;;;;;;;10.53;6.80;;;;;;;;;;5016820;28;20430;-51
2021/12/18 13:43:25;;;;;;;14.60;7.50;;;;;;;;;;5040928;28;20926;-50
2021/12/18 13:45:54;;;;;;;10.43;7.33;;;;;;;;;;5011422;28;20430;-49
2021/12/18 13:48:25;;;;;;;13.57;8.07;;;;;;;;;;5035243;28;21551;-51
2021/12/18 13:50:52;;;;;;;11.33;7.67;;;;;;;;;;5016010;28;20446;-50
2021/12/18 13:53:18;;;;;;;11.07;8.20;;;;;;;;;;5044149;28;20439;-51
2021/12/18 13:55:47;;;;;;;10.97;7.00;;;;;;;;;;5041742;28;20496;-52
2021/12/18 13:58:17;;;;;;;14.87;8.20;;;;;;;;;;5046109;28;20507;-51
2021/12/18 14:01:00;;;;;;;15.30;7.83;;;;;;;;;;4998044;28;20451;-50
2021/12/18 14:03:50;;;;;;;17.03;10.47;;;;;;;;;;5040041;28;20494;-52
2021/12/18 14:06:21;;;;;;;13.33;7.70;;;;;;;;;;5022112;28;20446;-50
2021/12/18 14:09:12;;;;;;;11.33;7.20;;;;;;;;;;5037813;28;20434;-51
2021/12/18 14:11:54;;;;;;;15.20;7.90;;;;;;;;;;5036818;28;20482;-50
2021/12/18 14:14:32;;;;;;;14.40;7.03;;;;;;;;;;5011557;28;20470;-50
2021/12/18 14:16:58;;;;;;;13.10;7.97;;;;;;;;;;5037867;28;20429;-52
2021/12/18 14:19:26;;;;;;;11.57;7.33;;;;;;;;;;5034536;28;20451;-51
2021/12/18 14:21:57;;;;;;;12.97;7.90;;;;;;;;;;5036576;28;20451;-50
2021/12/18 14:24:24;;;;;;;12.60;7.17;;;;;;;;;;5032981;28;20442;-50
2021/12/18 14:27:06;;;;;;;14.47;8.07;;;;;;;;;;5040618;28;20468;-50
2021/12/18 14:29:33;;;;;;;12.83;9.17;;;;;;;;;;5021496;28;20454;-50
2021/12/18 14:31:59;;;;;;;10.87;7.77;;;;;;;;;;5036163;28;20492;-49
2021/12/18 14:34:27;;;;;;;16.43;8.10;;;;;;;;;;4996751;28;20470;-50
2021/12/18 14:36:59;;;;;;;14.97;9.50;;;;;;;;;;5031702;28;20977;-50
2021/12/18 14:39:48;;;;;;;18.20;9.80;;;;;;;;;;5039833;28;20944;-51
2021/12/18 14:42:15;;;;;;;13.30;8.83;;;;;;;;;;5034793;28;20688;-50
2021/12/18 14:44:43;;;;;;;15.77;9.37;;;;;;;;;;5032647;28;20538;-51
2021/12/18 14:47:17;;;;;;;20.33;8.60;;;;;;;;;;5011616;28;20440;-50
2021/12/18 14:50:02;;;;;;;16.27;9.20;;;;;;;;;;5040816;28;20788;-50
2021/12/18 14:52:28;;;;;;;15.27;8.80;;;;;;;;;;5010296;28;20450;-49
2021/12/18 14:54:56;;;;;;;13.50;9.47;;;;;;;;;;5041484;28;20470;-50
2021/12/18 14:57:23;;;;;;;14.10;8.30;;;;;;;;;;5013658;28;20462;-51
2021/12/18 15:00:07;;;;;;;14.47;9.20;;;;;;;;;;5038005;28;20430;-52
2021/12/18 15:02:33;;;;;;;14.90;8.90;;;;;;;;;;5029501;28;20967;-50
2021/12/18 15:05:07;;;;;;;14.40;9.57;;;;;;;;;;5037524;28;20557;-51
2021/12/18 15:07:34;;;;;;;11.90;7.40;;;;;;;;;;4981604;28;20438;-51
2021/12/18 15:10:01;;;;;;;17.27;9.07;;;;;;;;;;5036318;28;20447;-51
2021/12/18 15:12:27;;;;;;;12.13;8.40;;;;;;;;;;5031656;28;20439;-51
2021/12/18 15:14:54;;;;;;;13.90;8.90;;;;;;;;;;5036401;28;20482;-51
2021/12/18 15:17:26;;;;;;;11.83;8.17;;;;;;;;;;5029816;28;20508;-51
2021/12/18 15:19:52;;;;;;;13.10;9.47;;;;;;;;;;5053624;28;20462;-51
2021/12/18 15:22:20;;;;;;;10.90;8.70;;;;;;;;;;5020901;28;20504;-52
2021/12/18 15:24:47;;;;;;;10.77;8.53;;;;;;;;;;5042803;28;20487;-55
2021/12/18 15:27:14;;;;;;;14.07;9.83;;;;;;;;;;5029192;28;20458;-51
2021/12/18 15:29:43;;;;;;;15.27;8.50;;;;;;;;;;5040694;28;20861;-52
2021/12/18 15:32:09;;;;;;;11.60;8.00;;;;;;;;;;5016857;28;20538;-51